sensor_id;sensor_type;location;lat;lon;timestamp;temperature;humidity
69589;SHT31;56792;50.644;17.984;2023-07-22T00:01:20;17.79;80.01
69589;SHT31;56792;50.644;17.984;2023-07-22T00:03:49;17.86;79.94
69589;SHT31;56792;50.644;17.984;2023-07-22T00:06:17;17.87;80.01
69589;SHT31;56792;50.644;17.984;2023-07-22T00:08:46;17.90;80.17
69589;SHT31;56792;50.644;17.984;2023-07-22T00:11:16;17.92;80.13
69589;SHT31;56792;50.644;17.984;2023-07-22T00:13:44;17.95;80.12
69589;SHT31;56792;50.644;17.984;2023-07-22T00:16:12;17.95;80.18
69589;SHT31;56792;50.644;17.984;2023-07-22T00:18:41;17.97;80.18
69589;SHT31;56792;50.644;17.984;2023-07-22T00:21:09;17.98;80.16
69589;SHT31;56792;50.644;17.984;2023-07-22T00:23:37;17.99;80.25
69589;SHT31;56792;50.644;17.984;2023-07-22T00:26:12;18.01;80.27
69589;SHT31;56792;50.644;17.984;2023-07-22T00:28:40;18.01;80.32
69589;SHT31;56792;50.644;17.984;2023-07-22T00:31:09;18.00;80.36
69589;SHT31;56792;50.644;17.984;2023-07-22T00:33:38;18.00;80.41
69589;SHT31;56792;50.644;17.984;2023-07-22T00:36:06;18.01;80.46
69589;SHT31;56792;50.644;17.984;2023-07-22T00:38:34;18.03;80.56
69589;SHT31;56792;50.644;17.984;2023-07-22T00:41:03;18.04;80.64
69589;SHT31;56792;50.644;17.984;2023-07-22T00:43:33;18.04;80.76
69589;SHT31;56792;50.644;17.984;2023-07-22T00:46:01;18.03;80.84
69589;SHT31;56792;50.644;17.984;2023-07-22T00:48:30;18.03;80.89
69589;SHT31;56792;50.644;17.984;2023-07-22T00:50:59;18.03;80.94
69589;SHT31;56792;50.644;17.984;2023-07-22T00:53:27;18.02;80.97
69589;SHT31;56792;50.644;17.984;2023-07-22T00:55:56;18.04;80.97
69589;SHT31;56792;50.644;17.984;2023-07-22T00:58:25;18.00;81.14
69589;SHT31;56792;50.644;17.984;2023-07-22T01:00:53;17.96;81.33
69589;SHT31;56792;50.644;17.984;2023-07-22T01:03:21;17.92;81.45
69589;SHT31;56792;50.644;17.984;2023-07-22T01:06:11;17.88;81.64
69589;SHT31;56792;50.644;17.984;2023-07-22T01:08:40;17.87;81.75
69589;SHT31;56792;50.644;17.984;2023-07-22T01:11:09;17.85;81.78
69589;SHT31;56792;50.644;17.984;2023-07-22T01:13:37;17.85;81.77
69589;SHT31;56792;50.644;17.984;2023-07-22T01:16:05;17.86;81.70
69589;SHT31;56792;50.644;17.984;2023-07-22T01:18:34;17.86;81.60
69589;SHT31;56792;50.644;17.984;2023-07-22T01:21:04;17.86;81.42
69589;SHT31;56792;50.644;17.984;2023-07-22T01:23:36;17.88;81.19
69589;SHT31;56792;50.644;17.984;2023-07-22T01:26:05;17.87;80.97
69589;SHT31;56792;50.644;17.984;2023-07-22T01:28:35;17.88;80.78
69589;SHT31;56792;50.644;17.984;2023-07-22T01:31:03;17.87;80.63
69589;SHT31;56792;50.644;17.984;2023-07-22T01:33:32;17.85;80.58
69589;SHT31;56792;50.644;17.984;2023-07-22T01:36:01;17.80;80.53
69589;SHT31;56792;50.644;17.984;2023-07-22T01:38:30;17.77;80.64
69589;SHT31;56792;50.644;17.984;2023-07-22T01:40:58;17.75;80.71
69589;SHT31;56792;50.644;17.984;2023-07-22T01:43:27;17.71;80.76
69589;SHT31;56792;50.644;17.984;2023-07-22T01:45:55;17.69;80.71
69589;SHT31;56792;50.644;17.984;2023-07-22T01:48:23;17.67;80.63
69589;SHT31;56792;50.644;17.984;2023-07-22T01:50:52;17.65;80.56
69589;SHT31;56792;50.644;17.984;2023-07-22T01:53:20;17.61;80.40
69589;SHT31;56792;50.644;17.984;2023-07-22T01:55:49;17.57;80.34
69589;SHT31;56792;50.644;17.984;2023-07-22T01:58:17;17.55;80.32
69589;SHT31;56792;50.644;17.984;2023-07-22T02:00:49;17.55;80.21
69589;SHT31;56792;50.644;17.984;2023-07-22T02:03:17;17.53;80.16
69589;SHT31;56792;50.644;17.984;2023-07-22T02:05:46;17.48;80.13
69589;SHT31;56792;50.644;17.984;2023-07-22T02:08:15;17.46;80.10
69589;SHT31;56792;50.644;17.984;2023-07-22T02:10:43;17.43;79.96
69589;SHT31;56792;50.644;17.984;2023-07-22T02:13:11;17.41;79.95
69589;SHT31;56792;50.644;17.984;2023-07-22T02:15:41;17.38;79.95
69589;SHT31;56792;50.644;17.984;2023-07-22T02:18:10;17.34;79.99
69589;SHT31;56792;50.644;17.984;2023-07-22T02:20:38;17.33;80.02
69589;SHT31;56792;50.644;17.984;2023-07-22T02:23:10;17.30;79.88
69589;SHT31;56792;50.644;17.984;2023-07-22T02:25:38;17.28;79.86
69589;SHT31;56792;50.644;17.984;2023-07-22T02:28:07;17.28;79.90
69589;SHT31;56792;50.644;17.984;2023-07-22T02:30:35;17.27;79.86
69589;SHT31;56792;50.644;17.984;2023-07-22T02:33:05;17.25;79.98
69589;SHT31;56792;50.644;17.984;2023-07-22T02:35:34;17.26;79.94
69589;SHT31;56792;50.644;17.984;2023-07-22T02:38:03;17.25;79.86
69589;SHT31;56792;50.644;17.984;2023-07-22T02:43:02;17.20;79.70
69589;SHT31;56792;50.644;17.984;2023-07-22T02:45:31;17.16;79.61
69589;SHT31;56792;50.644;17.984;2023-07-22T02:47:59;17.13;79.52
69589;SHT31;56792;50.644;17.984;2023-07-22T02:50:28;17.11;79.40
69589;SHT31;56792;50.644;17.984;2023-07-22T02:52:57;17.12;79.35
69589;SHT31;56792;50.644;17.984;2023-07-22T02:55:26;17.12;79.30
69589;SHT31;56792;50.644;17.984;2023-07-22T02:57:54;17.10;79.38
69589;SHT31;56792;50.644;17.984;2023-07-22T03:00:23;17.11;79.32
69589;SHT31;56792;50.644;17.984;2023-07-22T03:02:52;17.12;79.30
69589;SHT31;56792;50.644;17.984;2023-07-22T03:05:26;17.10;79.36
69589;SHT31;56792;50.644;17.984;2023-07-22T03:07:56;17.09;79.52
69589;SHT31;56792;50.644;17.984;2023-07-22T03:10:24;17.10;79.56
69589;SHT31;56792;50.644;17.984;2023-07-22T03:12:54;17.10;79.71
69589;SHT31;56792;50.644;17.984;2023-07-22T03:15:23;17.07;79.87
69589;SHT31;56792;50.644;17.984;2023-07-22T03:17:52;17.04;79.89
69589;SHT31;56792;50.644;17.984;2023-07-22T03:20:21;17.00;79.86
69589;SHT31;56792;50.644;17.984;2023-07-22T03:22:50;16.98;79.88
69589;SHT31;56792;50.644;17.984;2023-07-22T03:25:20;16.97;79.95
69589;SHT31;56792;50.644;17.984;2023-07-22T03:27:49;16.94;79.96
69589;SHT31;56792;50.644;17.984;2023-07-22T03:30:17;16.90;79.98
69589;SHT31;56792;50.644;17.984;2023-07-22T03:32:49;16.88;80.03
69589;SHT31;56792;50.644;17.984;2023-07-22T03:35:17;16.86;80.02
69589;SHT31;56792;50.644;17.984;2023-07-22T03:37:46;16.86;80.11
69589;SHT31;56792;50.644;17.984;2023-07-22T03:40:14;16.82;80.17
69589;SHT31;56792;50.644;17.984;2023-07-22T03:42:46;16.81;80.18
69589;SHT31;56792;50.644;17.984;2023-07-22T03:45:16;16.80;80.21
69589;SHT31;56792;50.644;17.984;2023-07-22T03:47:45;16.77;80.32
69589;SHT31;56792;50.644;17.984;2023-07-22T03:50:16;16.76;80.25
69589;SHT31;56792;50.644;17.984;2023-07-22T03:52:44;16.77;80.18
69589;SHT31;56792;50.644;17.984;2023-07-22T03:55:13;16.79;80.20
69589;SHT31;56792;50.644;17.984;2023-07-22T03:57:41;16.81;80.12
69589;SHT31;56792;50.644;17.984;2023-07-22T04:00:11;16.83;80.09
69589;SHT31;56792;50.644;17.984;2023-07-22T04:02:40;16.85;80.09
69589;SHT31;56792;50.644;17.984;2023-07-22T04:05:09;16.86;80.00
69589;SHT31;56792;50.644;17.984;2023-07-22T04:07:38;16.86;79.97
69589;SHT31;56792;50.644;17.984;2023-07-22T04:10:07;16.87;79.88
69589;SHT31;56792;50.644;17.984;2023-07-22T04:12:36;16.87;79.88
69589;SHT31;56792;50.644;17.984;2023-07-22T04:15:05;16.89;79.81
69589;SHT31;56792;50.644;17.984;2023-07-22T04:17:35;16.92;79.81
69589;SHT31;56792;50.644;17.984;2023-07-22T04:20:04;16.93;79.64
69589;SHT31;56792;50.644;17.984;2023-07-22T04:22:35;16.94;79.62
69589;SHT31;56792;50.644;17.984;2023-07-22T04:25:04;16.97;79.66
69589;SHT31;56792;50.644;17.984;2023-07-22T04:27:35;16.98;79.42
69589;SHT31;56792;50.644;17.984;2023-07-22T04:30:04;16.97;79.34
69589;SHT31;56792;50.644;17.984;2023-07-22T04:32:35;16.96;79.29
69589;SHT31;56792;50.644;17.984;2023-07-22T04:35:05;16.95;79.14
69589;SHT31;56792;50.644;17.984;2023-07-22T04:37:36;16.95;78.99
69589;SHT31;56792;50.644;17.984;2023-07-22T04:40:06;16.93;78.94
69589;SHT31;56792;50.644;17.984;2023-07-22T04:42:40;16.90;79.01
69589;SHT31;56792;50.644;17.984;2023-07-22T04:45:09;16.90;79.00
69589;SHT31;56792;50.644;17.984;2023-07-22T04:47:38;16.89;78.91
69589;SHT31;56792;50.644;17.984;2023-07-22T04:50:10;16.91;78.83
69589;SHT31;56792;50.644;17.984;2023-07-22T04:52:38;16.93;78.77
69589;SHT31;56792;50.644;17.984;2023-07-22T04:55:10;16.94;78.56
69589;SHT31;56792;50.644;17.984;2023-07-22T04:57:39;16.92;78.50
69589;SHT31;56792;50.644;17.984;2023-07-22T05:00:11;16.93;78.50
69589;SHT31;56792;50.644;17.984;2023-07-22T05:02:42;16.95;78.49
69589;SHT31;56792;50.644;17.984;2023-07-22T05:05:11;17.00;78.47
69589;SHT31;56792;50.644;17.984;2023-07-22T05:07:40;17.03;78.38
69589;SHT31;56792;50.644;17.984;2023-07-22T05:10:09;17.07;78.32
69589;SHT31;56792;50.644;17.984;2023-07-22T05:12:39;17.11;78.21
69589;SHT31;56792;50.644;17.984;2023-07-22T05:15:09;17.15;78.14
69589;SHT31;56792;50.644;17.984;2023-07-22T05:17:39;17.18;78.06
69589;SHT31;56792;50.644;17.984;2023-07-22T05:20:08;17.21;77.96
69589;SHT31;56792;50.644;17.984;2023-07-22T05:22:39;17.25;77.62
69589;SHT31;56792;50.644;17.984;2023-07-22T05:25:08;17.29;77.55
69589;SHT31;56792;50.644;17.984;2023-07-22T05:27:36;17.32;77.58
69589;SHT31;56792;50.644;17.984;2023-07-22T05:30:07;17.38;77.76
69589;SHT31;56792;50.644;17.984;2023-07-22T05:32:36;17.44;77.53
69589;SHT31;56792;50.644;17.984;2023-07-22T05:35:05;17.50;77.22
69589;SHT31;56792;50.644;17.984;2023-07-22T05:37:35;17.56;77.17
69589;SHT31;56792;50.644;17.984;2023-07-22T05:40:04;17.62;76.54
69589;SHT31;56792;50.644;17.984;2023-07-22T05:42:37;17.67;76.17
69589;SHT31;56792;50.644;17.984;2023-07-22T05:45:06;17.73;75.59
69589;SHT31;56792;50.644;17.984;2023-07-22T05:47:39;17.78;75.29
69589;SHT31;56792;50.644;17.984;2023-07-22T05:50:08;17.85;75.29
69589;SHT31;56792;50.644;17.984;2023-07-22T05:52:37;17.94;75.09
69589;SHT31;56792;50.644;17.984;2023-07-22T05:55:05;18.01;74.52
69589;SHT31;56792;50.644;17.984;2023-07-22T05:57:35;18.07;74.10
69589;SHT31;56792;50.644;17.984;2023-07-22T06:00:03;18.14;74.04
69589;SHT31;56792;50.644;17.984;2023-07-22T06:02:41;18.23;73.36
69589;SHT31;56792;50.644;17.984;2023-07-22T06:05:09;18.30;73.34
69589;SHT31;56792;50.644;17.984;2023-07-22T06:07:38;18.39;73.03
69589;SHT31;56792;50.644;17.984;2023-07-22T06:10:07;18.48;73.21
69589;SHT31;56792;50.644;17.984;2023-07-22T06:12:37;18.57;72.81
69589;SHT31;56792;50.644;17.984;2023-07-22T06:15:07;18.68;72.22
69589;SHT31;56792;50.644;17.984;2023-07-22T06:17:36;18.80;71.67
69589;SHT31;56792;50.644;17.984;2023-07-22T06:20:06;18.92;71.22
69589;SHT31;56792;50.644;17.984;2023-07-22T06:22:37;19.10;71.23
69589;SHT31;56792;50.644;17.984;2023-07-22T06:25:06;19.26;71.06
69589;SHT31;56792;50.644;17.984;2023-07-22T06:27:35;19.40;70.10
69589;SHT31;56792;50.644;17.984;2023-07-22T06:30:06;19.62;69.74
69589;SHT31;56792;50.644;17.984;2023-07-22T06:32:37;19.74;69.00
69589;SHT31;56792;50.644;17.984;2023-07-22T06:35:06;19.82;68.58
69589;SHT31;56792;50.644;17.984;2023-07-22T06:37:35;19.89;67.75
69589;SHT31;56792;50.644;17.984;2023-07-22T06:40:06;20.05;67.68
69589;SHT31;56792;50.644;17.984;2023-07-22T06:42:36;20.33;67.68
69589;SHT31;56792;50.644;17.984;2023-07-22T06:45:05;20.42;65.78
69589;SHT31;56792;50.644;17.984;2023-07-22T06:47:36;20.50;65.65
69589;SHT31;56792;50.644;17.984;2023-07-22T06:50:05;20.68;65.29
69589;SHT31;56792;50.644;17.984;2023-07-22T06:52:34;20.80;64.78
69589;SHT31;56792;50.644;17.984;2023-07-22T06:55:03;20.89;64.70
69589;SHT31;56792;50.644;17.984;2023-07-22T06:57:33;21.01;64.72
69589;SHT31;56792;50.644;17.984;2023-07-22T07:00:01;21.19;64.59
69589;SHT31;56792;50.644;17.984;2023-07-22T07:02:31;21.32;64.01
69589;SHT31;56792;50.644;17.984;2023-07-22T07:05:00;21.34;62.08
69589;SHT31;56792;50.644;17.984;2023-07-22T07:07:29;21.33;61.01
69589;SHT31;56792;50.644;17.984;2023-07-22T07:09:58;21.42;61.58
69589;SHT31;56792;50.644;17.984;2023-07-22T07:12:27;21.72;61.27
69589;SHT31;56792;50.644;17.984;2023-07-22T07:14:55;22.02;61.01
69589;SHT31;56792;50.644;17.984;2023-07-22T07:17:23;22.01;60.66
69589;SHT31;56792;50.644;17.984;2023-07-22T07:19:52;22.05;61.06
69589;SHT31;56792;50.644;17.984;2023-07-22T07:22:20;22.30;59.88
69589;SHT31;56792;50.644;17.984;2023-07-22T07:24:49;22.49;58.49
69589;SHT31;56792;50.644;17.984;2023-07-22T07:27:17;22.69;59.36
69589;SHT31;56792;50.644;17.984;2023-07-22T07:29:45;22.81;58.74
69589;SHT31;56792;50.644;17.984;2023-07-22T07:32:14;22.87;58.52
69589;SHT31;56792;50.644;17.984;2023-07-22T07:34:42;22.89;58.41
69589;SHT31;56792;50.644;17.984;2023-07-22T07:37:10;22.92;58.07
69589;SHT31;56792;50.644;17.984;2023-07-22T07:39:39;23.00;56.27
69589;SHT31;56792;50.644;17.984;2023-07-22T07:42:07;23.00;55.21
69589;SHT31;56792;50.644;17.984;2023-07-22T07:44:35;23.04;53.91
69589;SHT31;56792;50.644;17.984;2023-07-22T07:47:04;23.12;54.00
69589;SHT31;56792;50.644;17.984;2023-07-22T07:49:33;23.21;53.26
69589;SHT31;56792;50.644;17.984;2023-07-22T07:52:02;23.36;53.72
69589;SHT31;56792;50.644;17.984;2023-07-22T07:54:32;23.59;54.54
69589;SHT31;56792;50.644;17.984;2023-07-22T07:57:01;23.91;54.17
69589;SHT31;56792;50.644;17.984;2023-07-22T07:59:29;24.18;52.25
69589;SHT31;56792;50.644;17.984;2023-07-22T08:01:58;24.39;52.32
69589;SHT31;56792;50.644;17.984;2023-07-22T08:04:26;24.40;50.99
69589;SHT31;56792;50.644;17.984;2023-07-22T08:06:54;24.50;51.27
69589;SHT31;56792;50.644;17.984;2023-07-22T08:09:23;24.77;51.47
69589;SHT31;56792;50.644;17.984;2023-07-22T08:11:51;24.94;49.70
69589;SHT31;56792;50.644;17.984;2023-07-22T08:14:19;24.96;50.46
69589;SHT31;56792;50.644;17.984;2023-07-22T08:16:48;25.19;51.00
69589;SHT31;56792;50.644;17.984;2023-07-22T08:19:16;25.42;49.68
69589;SHT31;56792;50.644;17.984;2023-07-22T08:21:45;25.47;48.99
69589;SHT31;56792;50.644;17.984;2023-07-22T08:24:13;25.64;48.49
69589;SHT31;56792;50.644;17.984;2023-07-22T08:26:42;25.82;47.83
69589;SHT31;56792;50.644;17.984;2023-07-22T08:29:10;25.66;46.15
69589;SHT31;56792;50.644;17.984;2023-07-22T08:31:38;25.38;47.46
69589;SHT31;56792;50.644;17.984;2023-07-22T08:34:07;25.29;48.04
69589;SHT31;56792;50.644;17.984;2023-07-22T08:36:35;25.28;48.62
69589;SHT31;56792;50.644;17.984;2023-07-22T08:39:04;25.31;48.06
69589;SHT31;56792;50.644;17.984;2023-07-22T08:41:33;25.58;48.35
69589;SHT31;56792;50.644;17.984;2023-07-22T08:44:02;25.77;47.09
69589;SHT31;56792;50.644;17.984;2023-07-22T08:46:37;25.55;47.04
69589;SHT31;56792;50.644;17.984;2023-07-22T08:49:09;25.66;46.67
69589;SHT31;56792;50.644;17.984;2023-07-22T08:51:38;25.75;46.53
69589;SHT31;56792;50.644;17.984;2023-07-22T08:54:07;25.75;46.47
69589;SHT31;56792;50.644;17.984;2023-07-22T08:56:37;25.73;46.59
69589;SHT31;56792;50.644;17.984;2023-07-22T08:59:07;25.87;46.70
69589;SHT31;56792;50.644;17.984;2023-07-22T09:01:36;26.08;46.90
69589;SHT31;56792;50.644;17.984;2023-07-22T09:04:05;26.17;46.86
69589;SHT31;56792;50.644;17.984;2023-07-22T09:06:35;26.23;46.82
69589;SHT31;56792;50.644;17.984;2023-07-22T09:09:04;26.07;46.43
69589;SHT31;56792;50.644;17.984;2023-07-22T09:11:34;25.87;45.78
69589;SHT31;56792;50.644;17.984;2023-07-22T09:14:03;25.64;45.80
69589;SHT31;56792;50.644;17.984;2023-07-22T09:16:32;25.53;46.38
69589;SHT31;56792;50.644;17.984;2023-07-22T09:19:02;25.47;45.68
69589;SHT31;56792;50.644;17.984;2023-07-22T09:21:31;25.10;45.92
69589;SHT31;56792;50.644;17.984;2023-07-22T09:24:01;24.86;46.79
69589;SHT31;56792;50.644;17.984;2023-07-22T09:26:46;24.84;47.19
69589;SHT31;56792;50.644;17.984;2023-07-22T09:29:15;25.19;47.79
69589;SHT31;56792;50.644;17.984;2023-07-22T09:31:49;25.62;47.89
69589;SHT31;56792;50.644;17.984;2023-07-22T09:34:21;26.03;47.11
69589;SHT31;56792;50.644;17.984;2023-07-22T09:36:51;26.29;46.42
69589;SHT31;56792;50.644;17.984;2023-07-22T09:39:21;26.42;45.79
69589;SHT31;56792;50.644;17.984;2023-07-22T09:41:50;26.74;45.65
69589;SHT31;56792;50.644;17.984;2023-07-22T09:44:19;26.85;44.24
69589;SHT31;56792;50.644;17.984;2023-07-22T09:46:47;27.14;44.72
69589;SHT31;56792;50.644;17.984;2023-07-22T09:49:17;27.31;44.15
69589;SHT31;56792;50.644;17.984;2023-07-22T09:51:45;27.09;43.27
69589;SHT31;56792;50.644;17.984;2023-07-22T09:54:16;26.74;42.92
69589;SHT31;56792;50.644;17.984;2023-07-22T09:56:48;26.51;43.28
69589;SHT31;56792;50.644;17.984;2023-07-22T09:59:17;26.39;43.27
69589;SHT31;56792;50.644;17.984;2023-07-22T10:01:48;26.54;43.23
69589;SHT31;56792;50.644;17.984;2023-07-22T10:04:18;26.68;43.07
69589;SHT31;56792;50.644;17.984;2023-07-22T10:06:53;27.05;43.48
69589;SHT31;56792;50.644;17.984;2023-07-22T10:09:22;27.41;43.25
69589;SHT31;56792;50.644;17.984;2023-07-22T10:11:54;27.71;43.38
69589;SHT31;56792;50.644;17.984;2023-07-22T10:14:23;28.00;42.46
69589;SHT31;56792;50.644;17.984;2023-07-22T10:16:53;28.15;41.32
69589;SHT31;56792;50.644;17.984;2023-07-22T10:19:21;28.27;40.37
69589;SHT31;56792;50.644;17.984;2023-07-22T10:21:51;28.26;39.77
69589;SHT31;56792;50.644;17.984;2023-07-22T10:24:20;28.38;39.83
69589;SHT31;56792;50.644;17.984;2023-07-22T10:26:49;28.54;38.86
69589;SHT31;56792;50.644;17.984;2023-07-22T10:29:18;28.90;40.35
69589;SHT31;56792;50.644;17.984;2023-07-22T10:31:48;29.32;39.40
69589;SHT31;56792;50.644;17.984;2023-07-22T10:34:21;29.13;38.46
69589;SHT31;56792;50.644;17.984;2023-07-22T10:36:50;28.77;38.98
69589;SHT31;56792;50.644;17.984;2023-07-22T10:39:27;29.06;39.38
69589;SHT31;56792;50.644;17.984;2023-07-22T10:42:00;29.14;37.74
69589;SHT31;56792;50.644;17.984;2023-07-22T10:44:31;29.14;38.35
69589;SHT31;56792;50.644;17.984;2023-07-22T10:47:02;29.05;39.08
69589;SHT31;56792;50.644;17.984;2023-07-22T10:49:43;28.81;38.62
69589;SHT31;56792;50.644;17.984;2023-07-22T10:52:13;28.34;38.14
69589;SHT31;56792;50.644;17.984;2023-07-22T10:55:02;27.66;38.05
69589;SHT31;56792;50.644;17.984;2023-07-22T10:57:47;27.11;39.01
69589;SHT31;56792;50.644;17.984;2023-07-22T11:00:19;26.80;40.15
69589;SHT31;56792;50.644;17.984;2023-07-22T11:02:48;26.48;40.01
69589;SHT31;56792;50.644;17.984;2023-07-22T11:05:47;26.09;40.57
69589;SHT31;56792;50.644;17.984;2023-07-22T11:11:05;25.63;41.54
69589;SHT31;56792;50.644;17.984;2023-07-22T11:13:38;25.48;41.60
69589;SHT31;56792;50.644;17.984;2023-07-22T11:16:09;25.43;41.94
69589;SHT31;56792;50.644;17.984;2023-07-22T11:18:38;25.42;42.12
69589;SHT31;56792;50.644;17.984;2023-07-22T11:21:09;25.42;42.21
69589;SHT31;56792;50.644;17.984;2023-07-22T11:23:38;25.40;42.28
69589;SHT31;56792;50.644;17.984;2023-07-22T11:26:07;25.29;42.31
69589;SHT31;56792;50.644;17.984;2023-07-22T11:28:36;25.23;42.69
69589;SHT31;56792;50.644;17.984;2023-07-22T11:31:05;25.34;42.91
69589;SHT31;56792;50.644;17.984;2023-07-22T11:33:40;25.59;42.61
69589;SHT31;56792;50.644;17.984;2023-07-22T11:36:12;25.78;41.99
69589;SHT31;56792;50.644;17.984;2023-07-22T11:38:40;25.99;41.74
69589;SHT31;56792;50.644;17.984;2023-07-22T11:41:09;26.19;41.00
69589;SHT31;56792;50.644;17.984;2023-07-22T11:43:37;26.44;41.64
69589;SHT31;56792;50.644;17.984;2023-07-22T11:46:06;26.62;41.69
69589;SHT31;56792;50.644;17.984;2023-07-22T11:48:35;27.10;41.12
69589;SHT31;56792;50.644;17.984;2023-07-22T11:51:03;27.57;40.26
69589;SHT31;56792;50.644;17.984;2023-07-22T11:53:34;28.00;40.86
69589;SHT31;56792;50.644;17.984;2023-07-22T11:56:03;28.40;40.30
69589;SHT31;56792;50.644;17.984;2023-07-22T11:58:32;28.78;39.93
69589;SHT31;56792;50.644;17.984;2023-07-22T12:01:05;29.05;38.56
69589;SHT31;56792;50.644;17.984;2023-07-22T12:03:36;29.31;38.58
69589;SHT31;56792;50.644;17.984;2023-07-22T12:06:06;29.63;38.15
69589;SHT31;56792;50.644;17.984;2023-07-22T12:08:35;29.98;37.86
69589;SHT31;56792;50.644;17.984;2023-07-22T12:11:08;30.37;37.16
69589;SHT31;56792;50.644;17.984;2023-07-22T12:13:44;30.65;35.23
69589;SHT31;56792;50.644;17.984;2023-07-22T12:16:21;30.82;34.51
69589;SHT31;56792;50.644;17.984;2023-07-22T12:18:50;31.00;35.98
69589;SHT31;56792;50.644;17.984;2023-07-22T12:21:22;31.36;34.16
69589;SHT31;56792;50.644;17.984;2023-07-22T12:23:52;31.33;33.82
69589;SHT31;56792;50.644;17.984;2023-07-22T12:26:21;31.34;34.01
69589;SHT31;56792;50.644;17.984;2023-07-22T12:28:49;31.32;33.22
69589;SHT31;56792;50.644;17.984;2023-07-22T12:31:18;31.00;34.04
69589;SHT31;56792;50.644;17.984;2023-07-22T12:33:46;30.73;34.43
69589;SHT31;56792;50.644;17.984;2023-07-22T12:36:14;30.26;34.42
69589;SHT31;56792;50.644;17.984;2023-07-22T12:38:43;29.66;35.08
69589;SHT31;56792;50.644;17.984;2023-07-22T12:41:11;29.30;35.66
69589;SHT31;56792;50.644;17.984;2023-07-22T12:43:39;28.87;35.37
69589;SHT31;56792;50.644;17.984;2023-07-22T12:46:08;28.56;36.07
69589;SHT31;56792;50.644;17.984;2023-07-22T12:48:36;28.39;36.11
69589;SHT31;56792;50.644;17.984;2023-07-22T12:51:05;28.30;36.47
69589;SHT31;56792;50.644;17.984;2023-07-22T12:53:35;28.49;36.00
69589;SHT31;56792;50.644;17.984;2023-07-22T12:56:03;28.77;36.37
69589;SHT31;56792;50.644;17.984;2023-07-22T12:58:32;29.24;36.36
69589;SHT31;56792;50.644;17.984;2023-07-22T13:01:00;29.58;36.09
69589;SHT31;56792;50.644;17.984;2023-07-22T13:03:28;29.91;35.67
69589;SHT31;56792;50.644;17.984;2023-07-22T13:05:57;29.90;35.28
69589;SHT31;56792;50.644;17.984;2023-07-22T13:08:25;29.76;34.59
69589;SHT31;56792;50.644;17.984;2023-07-22T13:10:53;29.52;34.03
69589;SHT31;56792;50.644;17.984;2023-07-22T13:13:22;29.27;34.26
69589;SHT31;56792;50.644;17.984;2023-07-22T13:15:50;29.11;34.51
69589;SHT31;56792;50.644;17.984;2023-07-22T13:18:18;28.95;35.23
69589;SHT31;56792;50.644;17.984;2023-07-22T13:20:47;28.67;34.97
69589;SHT31;56792;50.644;17.984;2023-07-22T13:23:15;28.39;36.15
69589;SHT31;56792;50.644;17.984;2023-07-22T13:25:44;28.15;35.40
69589;SHT31;56792;50.644;17.984;2023-07-22T13:28:12;27.90;35.65
69589;SHT31;56792;50.644;17.984;2023-07-22T13:30:41;27.74;35.49
69589;SHT31;56792;50.644;17.984;2023-07-22T13:33:09;27.68;35.84
69589;SHT31;56792;50.644;17.984;2023-07-22T13:35:38;27.91;35.60
69589;SHT31;56792;50.644;17.984;2023-07-22T13:38:06;28.28;36.22
69589;SHT31;56792;50.644;17.984;2023-07-22T13:40:34;28.53;36.96
69589;SHT31;56792;50.644;17.984;2023-07-22T13:43:03;28.71;36.14
69589;SHT31;56792;50.644;17.984;2023-07-22T13:45:31;28.81;35.75
69589;SHT31;56792;50.644;17.984;2023-07-22T13:48:00;28.71;34.37
69589;SHT31;56792;50.644;17.984;2023-07-22T13:50:28;28.68;34.50
69589;SHT31;56792;50.644;17.984;2023-07-22T13:52:57;28.67;34.70
69589;SHT31;56792;50.644;17.984;2023-07-22T13:55:25;28.61;35.45
69589;SHT31;56792;50.644;17.984;2023-07-22T13:57:53;28.59;35.25
69589;SHT31;56792;50.644;17.984;2023-07-22T14:00:22;28.60;34.50
69589;SHT31;56792;50.644;17.984;2023-07-22T14:02:50;28.73;36.17
69589;SHT31;56792;50.644;17.984;2023-07-22T14:05:18;28.87;36.18
69589;SHT31;56792;50.644;17.984;2023-07-22T14:07:47;28.72;34.53
69589;SHT31;56792;50.644;17.984;2023-07-22T14:10:15;28.42;33.43
69589;SHT31;56792;50.644;17.984;2023-07-22T14:12:44;28.17;35.73
69589;SHT31;56792;50.644;17.984;2023-07-22T14:15:13;28.26;37.43
69589;SHT31;56792;50.644;17.984;2023-07-22T14:17:41;28.34;35.60
69589;SHT31;56792;50.644;17.984;2023-07-22T14:20:10;28.29;34.57
69589;SHT31;56792;50.644;17.984;2023-07-22T14:22:41;28.23;34.47
69589;SHT31;56792;50.644;17.984;2023-07-22T14:25:09;28.20;35.13
69589;SHT31;56792;50.644;17.984;2023-07-22T14:27:38;28.03;36.84
69589;SHT31;56792;50.644;17.984;2023-07-22T14:30:07;27.93;39.21
69589;SHT31;56792;50.644;17.984;2023-07-22T14:32:37;27.82;38.44
69589;SHT31;56792;50.644;17.984;2023-07-22T14:35:06;27.63;39.66
69589;SHT31;56792;50.644;17.984;2023-07-22T14:37:36;27.63;41.32
69589;SHT31;56792;50.644;17.984;2023-07-22T14:40:05;27.66;41.22
69589;SHT31;56792;50.644;17.984;2023-07-22T14:42:36;27.63;41.89
69589;SHT31;56792;50.644;17.984;2023-07-22T14:45:05;27.52;41.64
69589;SHT31;56792;50.644;17.984;2023-07-22T14:47:35;27.40;41.16
69589;SHT31;56792;50.644;17.984;2023-07-22T14:50:04;27.25;39.92
69589;SHT31;56792;50.644;17.984;2023-07-22T14:52:34;27.14;39.46
69589;SHT31;56792;50.644;17.984;2023-07-22T14:55:03;27.23;42.04
69589;SHT31;56792;50.644;17.984;2023-07-22T14:57:32;27.34;41.93
69589;SHT31;56792;50.644;17.984;2023-07-22T15:00:00;27.37;41.00
69589;SHT31;56792;50.644;17.984;2023-07-22T15:02:30;27.41;42.32
69589;SHT31;56792;50.644;17.984;2023-07-22T15:04:58;27.40;40.94
69589;SHT31;56792;50.644;17.984;2023-07-22T15:07:27;27.32;40.00
69589;SHT31;56792;50.644;17.984;2023-07-22T15:09:56;27.34;40.17
69589;SHT31;56792;50.644;17.984;2023-07-22T15:12:28;27.33;39.55
69589;SHT31;56792;50.644;17.984;2023-07-22T15:14:56;27.31;39.78
69589;SHT31;56792;50.644;17.984;2023-07-22T15:17:26;27.36;39.50
69589;SHT31;56792;50.644;17.984;2023-07-22T15:19:57;27.32;38.90
69589;SHT31;56792;50.644;17.984;2023-07-22T15:22:26;27.26;39.08
69589;SHT31;56792;50.644;17.984;2023-07-22T15:26:19;27.10;38.23
69589;SHT31;56792;50.644;17.984;2023-07-22T15:28:48;26.93;38.91
69589;SHT31;56792;50.644;17.984;2023-07-22T15:31:17;26.71;37.73
69589;SHT31;56792;50.644;17.984;2023-07-22T15:33:47;26.64;38.06
69589;SHT31;56792;50.644;17.984;2023-07-22T15:36:15;26.56;38.09